createdAt,value
2017-02-20T00:00:12.814Z,0
2017-02-20T00:01:13.517Z,0
2017-02-20T00:02:14.215Z,0
2017-02-20T00:03:14.931Z,0
2017-02-20T00:04:15.647Z,0
2017-02-20T00:05:16.325Z,0
2017-02-20T00:06:17.015Z,0
2017-02-20T00:07:17.737Z,0
2017-02-20T00:08:18.398Z,0
2017-02-20T00:09:19.114Z,0
2017-02-20T00:10:19.817Z,0
2017-02-20T00:11:20.523Z,0
2017-02-20T00:12:21.214Z,0
2017-02-20T00:13:21.916Z,0
2017-02-20T00:14:22.613Z,0
2017-02-20T00:15:23.320Z,0
2017-02-20T00:16:24.006Z,0
2017-02-20T00:17:24.723Z,0
2017-02-20T00:18:25.367Z,0
2017-02-20T00:19:26.061Z,0
2017-02-20T00:20:26.776Z,0
2017-02-20T00:21:27.477Z,0
2017-02-20T00:22:28.210Z,0
2017-02-20T00:23:28.926Z,0
2017-02-20T00:24:29.693Z,0
2017-02-20T00:25:30.415Z,0
2017-02-20T00:26:31.085Z,0
2017-02-20T00:27:31.775Z,0
2017-02-20T00:28:32.494Z,0
2017-02-20T00:29:33.196Z,0
2017-02-20T00:30:33.886Z,0
2017-02-20T00:31:34.620Z,0
2017-02-20T00:32:35.319Z,0
2017-02-20T00:33:36.015Z,0
2017-02-20T00:34:36.736Z,0
2017-02-20T00:35:37.435Z,0
2017-02-20T00:36:38.131Z,0
2017-02-20T00:37:38.829Z,0
2017-02-20T00:38:39.537Z,0
2017-02-20T00:39:40.272Z,0
2017-02-20T00:40:40.952Z,0
2017-02-20T00:41:41.672Z,0
2017-02-20T00:42:42.363Z,0
2017-02-20T00:43:43.099Z,0
2017-02-20T00:44:43.801Z,0
2017-02-20T00:45:44.497Z,0
2017-02-20T00:46:45.170Z,0
2017-02-20T00:47:45.880Z,0
2017-02-20T00:48:46.585Z,0
2017-02-20T00:49:47.288Z,0
2017-02-20T00:50:48.023Z,0
2017-02-20T00:51:48.721Z,0
2017-02-20T00:52:49.401Z,0
2017-02-20T00:53:50.076Z,0
2017-02-20T00:54:50.777Z,0
2017-02-20T00:55:51.474Z,0
2017-02-20T00:56:52.180Z,0
2017-02-20T00:57:52.867Z,0
2017-02-20T00:58:53.614Z,0
2017-02-20T00:59:54.312Z,0
2017-02-20T01:00:54.995Z,0
2017-02-20T01:01:55.714Z,0
2017-02-20T01:02:56.406Z,0
2017-02-20T01:03:57.129Z,0
2017-02-20T01:04:57.816Z,0
2017-02-20T01:05:58.493Z,0
2017-02-20T01:06:59.197Z,0
2017-02-20T01:07:59.890Z,0
2017-02-20T01:09:00.568Z,0
2017-02-20T01:10:01.310Z,0
2017-02-20T01:11:02.033Z,0
2017-02-20T01:12:02.737Z,0
2017-02-20T01:13:03.411Z,0
2017-02-20T01:14:04.102Z,0
2017-02-20T01:15:04.778Z,0
2017-02-20T01:16:05.472Z,0
2017-02-20T01:17:06.171Z,0
2017-02-20T01:18:06.898Z,0
2017-02-20T01:19:07.589Z,0
2017-02-20T01:20:08.360Z,0
2017-02-20T01:21:09.105Z,0
2017-02-20T01:22:09.870Z,0
2017-02-20T01:23:10.559Z,0
2017-02-20T01:24:11.250Z,0
2017-02-20T01:25:11.947Z,0
2017-02-20T01:26:12.658Z,0
2017-02-20T01:27:13.356Z,0
2017-02-20T01:28:14.033Z,0
2017-02-20T01:29:14.720Z,0
2017-02-20T01:30:15.398Z,0
2017-02-20T01:31:16.105Z,0
2017-02-20T01:32:16.800Z,0
2017-02-20T01:33:17.515Z,0
2017-02-20T01:34:18.207Z,0
2017-02-20T01:35:18.950Z,0
2017-02-20T01:36:19.662Z,0
2017-02-20T01:37:20.349Z,0
2017-02-20T01:38:21.058Z,0
2017-02-20T01:39:21.755Z,0
2017-02-20T01:40:22.431Z,0
2017-02-20T01:41:23.104Z,0
2017-02-20T01:42:23.800Z,0
2017-02-20T01:43:24.484Z,0
2017-02-20T01:44:25.243Z,0
2017-02-20T01:45:25.927Z,0
2017-02-20T01:46:26.640Z,0
2017-02-20T01:47:27.376Z,0
2017-02-20T01:48:28.098Z,0
2017-02-20T01:49:28.829Z,0
2017-02-20T01:50:29.536Z,0
2017-02-20T01:51:30.310Z,0
2017-02-20T01:52:31.075Z,0
2017-02-20T01:53:31.771Z,0
2017-02-20T01:54:32.468Z,0
2017-02-20T01:55:33.166Z,0
2017-02-20T01:56:33.898Z,0
2017-02-20T01:57:34.624Z,0
2017-02-20T01:58:35.365Z,0
2017-02-20T01:59:36.060Z,0
2017-02-20T02:00:36.752Z,0
2017-02-20T02:01:37.448Z,0
2017-02-20T02:02:38.143Z,0
2017-02-20T02:03:38.844Z,0
2017-02-20T02:04:39.569Z,0
2017-02-20T02:05:40.244Z,0
2017-02-20T02:06:40.961Z,0
2017-02-20T02:07:44.173Z,0
2017-02-20T02:08:44.863Z,0
2017-02-20T02:09:45.572Z,0
2017-02-20T02:10:46.311Z,0
2017-02-20T02:11:46.999Z,0
2017-02-20T02:12:47.735Z,0
2017-02-20T02:13:48.418Z,0
2017-02-20T02:14:49.136Z,0
2017-02-20T02:15:49.841Z,0
2017-02-20T02:16:50.528Z,0
2017-02-20T02:17:51.224Z,0
2017-02-20T02:18:51.920Z,0
2017-02-20T02:19:52.615Z,0
2017-02-20T02:20:53.331Z,0
2017-02-20T02:21:54.044Z,0
2017-02-20T02:22:54.742Z,0
2017-02-20T02:23:55.445Z,0
2017-02-20T02:24:56.146Z,0
2017-02-20T02:25:56.830Z,0
2017-02-20T02:26:57.536Z,0
2017-02-20T02:27:58.218Z,0
2017-02-20T02:28:58.893Z,0
2017-02-20T02:29:59.587Z,0
2017-02-20T02:31:00.284Z,0
2017-02-20T02:32:00.987Z,0
2017-02-20T02:33:01.703Z,0
2017-02-20T02:34:02.400Z,0
2017-02-20T02:35:03.086Z,0
2017-02-20T02:36:03.783Z,0
2017-02-20T02:37:04.470Z,0
2017-02-20T02:38:05.166Z,0
2017-02-20T02:39:05.858Z,0
2017-02-20T02:40:06.545Z,0
2017-02-20T02:41:07.290Z,0
2017-02-20T02:42:07.999Z,0
2017-02-20T02:43:08.694Z,0
2017-02-20T02:44:09.421Z,0
2017-02-20T02:45:10.132Z,0
2017-02-20T02:46:10.809Z,0
2017-02-20T02:47:11.511Z,0
2017-02-20T02:48:12.210Z,0
2017-02-20T02:49:12.895Z,0
2017-02-20T02:50:13.582Z,0
2017-02-20T02:51:14.283Z,0
2017-02-20T02:52:14.997Z,0
2017-02-20T02:53:15.714Z,0
2017-02-20T02:54:16.395Z,0
2017-02-20T02:55:17.065Z,0
2017-02-20T02:56:17.753Z,0
2017-02-20T02:57:18.436Z,0
2017-02-20T02:58:19.159Z,0
2017-02-20T02:59:19.854Z,0
2017-02-20T03:00:20.555Z,0
2017-02-20T03:01:21.230Z,0
2017-02-20T03:02:21.929Z,0
2017-02-20T03:03:22.643Z,0
2017-02-20T03:04:23.338Z,0
2017-02-20T03:05:23.989Z,0
2017-02-20T03:06:24.673Z,0
2017-02-20T03:07:25.347Z,0
2017-02-20T03:08:26.063Z,0
2017-02-20T03:09:26.787Z,0
2017-02-20T03:10:27.467Z,0
2017-02-20T03:11:28.186Z,0
2017-02-20T03:12:28.913Z,0
2017-02-20T03:13:29.590Z,0
2017-02-20T03:14:30.296Z,0
2017-02-20T03:15:30.966Z,0
2017-02-20T03:16:31.657Z,0
2017-02-20T03:17:32.370Z,0
2017-02-20T03:18:33.081Z,0
2017-02-20T03:19:33.771Z,0
2017-02-20T03:20:34.458Z,0
2017-02-20T03:21:35.150Z,0
2017-02-20T03:22:35.843Z,0
2017-02-20T03:23:36.526Z,0
2017-02-20T03:24:37.226Z,0
2017-02-20T03:25:37.913Z,0
2017-02-20T03:26:38.625Z,0
2017-02-20T03:27:39.346Z,0
2017-02-20T03:28:40.025Z,0
2017-02-20T03:29:40.711Z,0
2017-02-20T03:30:41.405Z,0
2017-02-20T03:31:42.096Z,0
2017-02-20T03:32:42.792Z,0
2017-02-20T03:33:43.499Z,0
2017-02-20T03:34:44.168Z,0
2017-02-20T03:35:44.865Z,0
2017-02-20T03:36:45.573Z,0
2017-02-20T03:37:46.281Z,0
2017-02-20T03:38:46.959Z,0
2017-02-20T03:39:47.648Z,0
2017-02-20T03:40:48.341Z,0
2017-02-20T03:41:49.044Z,0
2017-02-20T03:42:49.729Z,0
2017-02-20T03:43:50.417Z,0
2017-02-20T03:44:51.117Z,0
2017-02-20T03:45:51.812Z,0
2017-02-20T03:46:52.533Z,0
2017-02-20T03:47:53.201Z,0
2017-02-20T03:48:53.901Z,0
2017-02-20T03:49:54.590Z,0
2017-02-20T03:50:55.292Z,0
2017-02-20T03:51:55.971Z,0
2017-02-20T03:52:56.684Z,0
2017-02-20T03:53:57.391Z,0
2017-02-20T03:54:58.079Z,0
2017-02-20T03:55:58.772Z,0
2017-02-20T03:56:59.458Z,0
2017-02-20T03:58:00.153Z,0
2017-02-20T03:59:00.852Z,0
2017-02-20T04:00:01.536Z,0
2017-02-20T04:01:02.241Z,0
2017-02-20T04:02:02.964Z,0
2017-02-20T04:03:03.667Z,0
2017-02-20T04:04:04.362Z,0
2017-02-20T04:05:05.038Z,0
2017-02-20T04:06:05.742Z,0
2017-02-20T04:07:06.425Z,0
2017-02-20T04:08:07.140Z,0
2017-02-20T04:09:07.838Z,0
2017-02-20T04:10:08.533Z,0
2017-02-20T04:11:09.254Z,0
2017-02-20T04:12:09.945Z,0
2017-02-20T04:13:10.650Z,0
2017-02-20T04:14:11.357Z,0
2017-02-20T04:15:12.051Z,0
2017-02-20T04:16:12.739Z,0
2017-02-20T04:17:13.432Z,0
2017-02-20T04:18:14.112Z,0
2017-02-20T04:19:14.805Z,0
2017-02-20T04:20:15.473Z,0
2017-02-20T04:21:16.164Z,0
2017-02-20T04:22:16.829Z,0
2017-02-20T04:23:17.505Z,0
2017-02-20T04:24:18.180Z,0
2017-02-20T04:25:18.848Z,0
2017-02-20T04:26:19.623Z,0
2017-02-20T04:27:20.314Z,0
2017-02-20T04:28:21.002Z,0
2017-02-20T04:29:21.671Z,0
2017-02-20T04:30:22.380Z,0
2017-02-20T04:31:23.060Z,0
2017-02-20T04:32:23.762Z,0
2017-02-20T04:33:24.465Z,0
2017-02-20T04:34:25.193Z,0
2017-02-20T04:35:25.878Z,0
2017-02-20T04:36:26.574Z,0
2017-02-20T04:37:27.297Z,0
2017-02-20T04:38:28.001Z,0
2017-02-20T04:39:28.688Z,0
2017-02-20T04:40:29.396Z,0
2017-02-20T04:41:30.077Z,0
2017-02-20T04:42:30.780Z,0
2017-02-20T04:43:31.448Z,0
2017-02-20T04:44:32.143Z,0
2017-02-20T04:45:32.852Z,0
2017-02-20T04:46:33.553Z,0
2017-02-20T04:47:34.227Z,0
2017-02-20T04:48:34.933Z,0
2017-02-20T04:49:35.664Z,0
2017-02-20T04:50:36.349Z,0
2017-02-20T04:51:37.034Z,0
2017-02-20T04:52:37.712Z,0
2017-02-20T04:53:38.412Z,0
2017-02-20T04:54:39.127Z,0
2017-02-20T04:55:39.825Z,0
2017-02-20T04:56:40.495Z,0
2017-02-20T04:57:41.214Z,0
2017-02-20T04:58:41.885Z,0
2017-02-20T04:59:42.588Z,0
2017-02-20T05:00:43.283Z,0
2017-02-20T05:01:43.981Z,0
2017-02-20T05:02:44.710Z,0
2017-02-20T05:03:45.405Z,0
2017-02-20T05:04:46.095Z,0
2017-02-20T05:05:46.794Z,0
2017-02-20T05:06:47.473Z,0
2017-02-20T05:07:48.172Z,0
2017-02-20T05:08:48.876Z,0
2017-02-20T05:09:49.588Z,0
2017-02-20T05:10:50.277Z,0
2017-02-20T05:11:50.979Z,0
2017-02-20T05:12:51.667Z,0
2017-02-20T05:13:52.331Z,0
2017-02-20T05:14:53.032Z,0
2017-02-20T05:15:53.749Z,0
2017-02-20T05:16:54.497Z,0
2017-02-20T05:17:55.222Z,0
2017-02-20T05:18:55.942Z,0
2017-02-20T05:19:56.647Z,0
2017-02-20T05:20:57.352Z,0
2017-02-20T05:21:58.048Z,0
2017-02-20T05:22:58.757Z,0
2017-02-20T05:23:59.458Z,0
2017-02-20T05:25:00.157Z,0
2017-02-20T05:26:00.873Z,0
2017-02-20T05:27:01.594Z,0
2017-02-20T05:28:02.292Z,0
2017-02-20T05:29:02.994Z,0
2017-02-20T05:30:03.698Z,0
2017-02-20T05:31:04.371Z,0
2017-02-20T05:32:05.061Z,0
2017-02-20T05:33:05.786Z,0
2017-02-20T05:34:06.517Z,0
2017-02-20T05:35:07.213Z,0
2017-02-20T05:36:07.937Z,0
2017-02-20T05:37:08.658Z,0
2017-02-20T05:38:09.381Z,0
2017-02-20T05:39:10.076Z,0
2017-02-20T05:40:10.758Z,0
2017-02-20T05:41:11.460Z,0
2017-02-20T05:42:12.162Z,0
2017-02-20T05:43:12.871Z,0
2017-02-20T05:44:13.573Z,0
2017-02-20T05:45:14.300Z,0
2017-02-20T05:46:14.985Z,0
2017-02-20T05:47:15.703Z,0
2017-02-20T05:48:16.398Z,0
2017-02-20T05:49:17.118Z,0
2017-02-20T05:50:17.816Z,0
2017-02-20T05:51:18.522Z,0
2017-02-20T05:52:19.207Z,0
2017-02-20T05:53:19.925Z,0
2017-02-20T05:54:20.669Z,0
2017-02-20T05:55:21.423Z,0
2017-02-20T05:56:22.120Z,0
2017-02-20T05:57:22.808Z,0
2017-02-20T05:58:23.515Z,0
2017-02-20T05:59:24.249Z,0
2017-02-20T06:00:24.941Z,0
2017-02-20T06:01:25.673Z,0
2017-02-20T06:02:26.361Z,4
2017-02-20T06:03:27.063Z,4
2017-02-20T06:04:27.763Z,4
2017-02-20T06:05:28.495Z,4
2017-02-20T06:06:29.200Z,4
2017-02-20T06:07:29.916Z,0
2017-02-20T06:08:30.607Z,4
2017-02-20T06:09:31.320Z,4
2017-02-20T06:10:32.052Z,4
2017-02-20T06:11:32.764Z,8
2017-02-20T06:12:33.489Z,8
2017-02-20T06:13:34.174Z,8
2017-02-20T06:14:34.885Z,12
2017-02-20T06:15:35.593Z,16
2017-02-20T06:16:36.281Z,20
2017-02-20T06:17:36.998Z,20
2017-02-20T06:18:37.721Z,20
2017-02-20T06:19:38.414Z,24
2017-02-20T06:20:39.097Z,32
2017-02-20T06:21:39.821Z,36
2017-02-20T06:22:40.524Z,36
2017-02-20T06:23:41.246Z,36
2017-02-20T06:24:41.955Z,44
2017-02-20T06:25:42.689Z,40
2017-02-20T06:26:43.381Z,44
2017-02-20T06:27:44.083Z,52
2017-02-20T06:28:44.769Z,52
2017-02-20T06:29:45.477Z,52
2017-02-20T06:30:46.201Z,56
2017-02-20T06:31:46.915Z,52
2017-02-20T06:32:47.608Z,64
2017-02-20T06:33:48.302Z,64
2017-02-20T06:34:49.049Z,68
2017-02-20T06:35:49.759Z,80
2017-02-20T06:36:50.498Z,84
2017-02-20T06:37:51.174Z,100
2017-02-20T06:38:51.886Z,84
2017-02-20T06:39:52.600Z,76
2017-02-20T06:40:53.310Z,108
2017-02-20T06:41:53.989Z,128
2017-02-20T06:42:54.719Z,136
2017-02-20T06:43:55.407Z,112
2017-02-20T06:44:56.075Z,100
2017-02-20T06:45:56.772Z,120
2017-02-20T06:46:57.469Z,220
2017-02-20T06:47:58.210Z,244
2017-02-20T06:48:58.907Z,216
2017-02-20T06:49:59.593Z,172
2017-02-20T06:51:00.285Z,172
2017-02-20T06:52:00.985Z,168
2017-02-20T06:53:01.695Z,220
2017-02-20T06:54:02.388Z,284
2017-02-20T06:55:03.070Z,292
2017-02-20T06:56:03.762Z,276
2017-02-20T06:57:04.436Z,256
2017-02-20T06:58:05.159Z,252
2017-02-20T06:59:05.827Z,248
2017-02-20T07:00:06.515Z,336
2017-02-20T07:01:07.205Z,392
2017-02-20T07:02:07.877Z,428
2017-02-20T07:03:08.573Z,468
2017-02-20T07:04:09.248Z,424
2017-02-20T07:05:09.937Z,508
2017-02-20T07:06:10.630Z,528
2017-02-20T07:07:11.333Z,552
2017-02-20T07:08:12.006Z,540
2017-02-20T07:09:12.682Z,588
2017-02-20T07:10:13.395Z,572
2017-02-20T07:11:14.069Z,592
2017-02-20T07:12:14.748Z,516
2017-02-20T07:13:15.418Z,592
2017-02-20T07:14:16.132Z,612
2017-02-20T07:15:16.817Z,632
2017-02-20T07:16:17.534Z,712
2017-02-20T07:17:18.236Z,596
2017-02-20T07:18:18.958Z,632
2017-02-20T07:19:19.677Z,616
2017-02-20T07:20:20.375Z,708
2017-02-20T07:21:21.078Z,780
2017-02-20T07:22:21.794Z,852
2017-02-20T07:23:22.483Z,1024
2017-02-20T07:24:23.174Z,984
2017-02-20T07:25:23.871Z,768
2017-02-20T07:26:24.576Z,892
2017-02-20T07:27:25.282Z,1152
2017-02-20T07:28:25.963Z,1056
2017-02-20T07:29:26.676Z,1008
2017-02-20T07:30:27.386Z,1096
2017-02-20T07:31:28.085Z,1112
2017-02-20T07:32:28.780Z,1048
2017-02-20T07:33:29.487Z,1132
2017-02-20T07:34:30.191Z,1116
2017-02-20T07:35:30.898Z,1104
2017-02-20T07:36:31.620Z,1040
2017-02-20T07:37:32.318Z,1120
2017-02-20T07:38:33.017Z,1344
2017-02-20T07:39:33.738Z,1168
2017-02-20T07:40:34.433Z,1080
2017-02-20T07:41:35.117Z,1300
2017-02-20T07:42:35.822Z,1172
2017-02-20T07:43:36.509Z,1192
2017-02-20T07:44:37.213Z,1200
2017-02-20T07:45:37.927Z,1304
2017-02-20T07:46:38.628Z,1296
2017-02-20T07:47:39.351Z,1232
2017-02-20T07:48:40.088Z,1268
2017-02-20T07:49:40.812Z,1416
2017-02-20T07:50:41.508Z,1156
2017-02-20T07:51:42.225Z,1448
2017-02-20T07:52:42.949Z,1364
2017-02-20T07:53:43.663Z,1264
2017-02-20T07:54:44.365Z,1276
2017-02-20T07:55:45.093Z,1220
2017-02-20T07:56:45.813Z,1348
2017-02-20T07:57:46.519Z,1324
2017-02-20T07:58:47.225Z,1260
2017-02-20T07:59:47.926Z,1368
2017-02-20T08:00:48.611Z,1388
2017-02-20T08:01:49.343Z,1472
2017-02-20T08:02:50.073Z,1288
2017-02-20T08:03:50.812Z,1392
2017-02-20T08:04:51.524Z,1472
2017-02-20T08:05:52.215Z,1344
2017-02-20T08:06:52.922Z,1672
2017-02-20T08:07:53.616Z,1592
2017-02-20T08:08:54.314Z,1644
2017-02-20T08:09:54.989Z,1496
2017-02-20T08:10:55.704Z,1840
2017-02-20T08:11:56.424Z,2084
2017-02-20T08:12:57.101Z,1992
2017-02-20T08:13:57.786Z,1640
2017-02-20T08:14:58.494Z,1760
2017-02-20T08:15:59.246Z,1800
2017-02-20T08:16:59.954Z,1964
2017-02-20T08:18:00.698Z,1856
2017-02-20T08:19:01.390Z,1584
2017-02-20T08:20:02.124Z,1916
2017-02-20T08:21:02.837Z,2044
2017-02-20T08:22:03.571Z,1584
2017-02-20T08:23:04.270Z,1740
2017-02-20T08:24:04.973Z,2232
2017-02-20T08:25:05.740Z,1944
2017-02-20T08:26:06.453Z,2012
2017-02-20T08:27:07.187Z,1676
2017-02-20T08:28:07.890Z,1480
2017-02-20T08:29:08.585Z,1328
2017-02-20T08:30:09.285Z,1452
2017-02-20T08:31:10.004Z,1536
2017-02-20T08:32:10.754Z,1696
2017-02-20T08:33:11.451Z,1748
2017-02-20T08:34:12.151Z,1932
2017-02-20T08:35:12.880Z,1820
2017-02-20T08:36:13.561Z,1900
2017-02-20T08:37:14.259Z,1588
2017-02-20T08:38:14.938Z,1644
2017-02-20T08:39:15.622Z,1324
2017-02-20T08:40:16.339Z,1584
2017-02-20T08:41:17.018Z,1732
2017-02-20T08:42:17.730Z,1572
2017-02-20T08:43:18.429Z,1400
2017-02-20T08:44:19.127Z,1420
2017-02-20T08:45:19.836Z,1652
2017-02-20T08:46:20.556Z,1476
2017-02-20T08:47:21.257Z,1460
2017-02-20T08:48:21.937Z,1696
2017-02-20T08:49:22.656Z,1580
2017-02-20T08:50:23.365Z,1468
2017-02-20T08:51:24.073Z,1460
2017-02-20T08:52:24.769Z,1432
2017-02-20T08:53:25.492Z,1520
2017-02-20T08:54:26.242Z,1648
2017-02-20T08:55:26.972Z,1884
2017-02-20T08:56:27.678Z,1932
2017-02-20T08:57:28.402Z,1844
2017-02-20T08:58:29.123Z,1824
2017-02-20T08:59:29.852Z,1868
2017-02-20T09:00:30.570Z,1944
2017-02-20T09:01:31.268Z,1888
2017-02-20T09:02:31.975Z,1808
2017-02-20T09:03:32.664Z,1776
2017-02-20T09:04:33.384Z,2180
2017-02-20T09:05:34.063Z,2044
2017-02-20T09:06:34.744Z,2708
2017-02-20T09:07:35.448Z,2128
2017-02-20T09:08:36.178Z,2160
2017-02-20T09:09:36.909Z,2760
2017-02-20T09:10:37.626Z,2348
2017-02-20T09:11:38.336Z,2852
2017-02-20T09:12:39.049Z,2408
2017-02-20T09:13:39.753Z,2704
2017-02-20T09:14:40.459Z,2424
2017-02-20T09:15:41.132Z,2512
2017-02-20T09:16:41.838Z,2220
2017-02-20T09:17:42.488Z,3176
2017-02-20T09:18:43.216Z,2332
2017-02-20T09:19:43.899Z,3052
2017-02-20T09:20:44.613Z,2440
2017-02-20T09:21:45.306Z,1884
2017-02-20T09:22:46.051Z,2200
2017-02-20T09:23:46.726Z,2560
2017-02-20T09:24:47.435Z,3020
2017-02-20T09:25:48.165Z,3068
2017-02-20T09:26:48.865Z,2484
2017-02-20T09:27:49.546Z,2440
2017-02-20T09:28:50.261Z,2164
2017-02-20T09:29:50.977Z,2164
2017-02-20T09:30:51.686Z,2768
2017-02-20T09:31:52.373Z,2504
2017-02-20T09:32:53.056Z,2344
2017-02-20T09:33:53.749Z,1868
2017-02-20T09:34:54.422Z,1924
2017-02-20T09:35:55.142Z,2060
2017-02-20T09:36:55.875Z,1960
2017-02-20T09:37:56.589Z,2136
2017-02-20T09:38:57.292Z,2340
2017-02-20T09:39:57.992Z,2176
2017-02-20T09:40:58.682Z,2404
2017-02-20T09:41:59.400Z,2056
2017-02-20T09:43:00.113Z,2092
2017-02-20T09:44:00.831Z,2264
2017-02-20T09:45:01.569Z,2568
2017-02-20T09:46:02.283Z,2896
2017-02-20T09:47:02.975Z,2892
2017-02-20T09:48:03.694Z,2980
2017-02-20T09:49:04.396Z,2360
2017-02-20T09:50:05.091Z,2868
2017-02-20T09:51:05.788Z,3076
2017-02-20T09:52:06.511Z,2572
2017-02-20T09:53:07.234Z,2136
2017-02-20T09:54:07.915Z,2124
2017-02-20T09:55:08.643Z,2432
2017-02-20T09:56:09.363Z,2428
2017-02-20T09:57:10.088Z,1948
2017-02-20T09:58:10.809Z,1792
2017-02-20T09:59:11.509Z,1792
2017-02-20T10:00:12.225Z,2028
2017-02-20T10:01:12.905Z,1864
2017-02-20T10:02:13.593Z,1976
2017-02-20T10:03:14.300Z,2348
2017-02-20T10:04:15.008Z,2192
2017-02-20T10:05:15.713Z,2304
2017-02-20T10:06:16.455Z,2068
2017-02-20T10:07:17.170Z,2236
2017-02-20T10:08:17.855Z,2188
2017-02-20T10:09:18.550Z,2516
2017-02-20T10:10:19.256Z,3328
2017-02-20T10:11:19.979Z,3204
2017-02-20T10:12:20.696Z,2552
2017-02-20T10:13:21.385Z,2880
2017-02-20T10:14:22.106Z,3276
2017-02-20T10:15:22.815Z,3120
2017-02-20T10:16:23.483Z,3036
2017-02-20T10:17:24.169Z,2948
2017-02-20T10:18:24.851Z,2892
2017-02-20T10:19:25.556Z,3184
2017-02-20T10:20:26.290Z,2980
2017-02-20T10:21:27.047Z,2704
2017-02-20T10:22:27.677Z,2812
2017-02-20T10:23:28.402Z,2516
2017-02-20T10:24:29.125Z,2744
2017-02-20T10:25:29.799Z,2752
2017-02-20T10:26:30.495Z,3140
2017-02-20T10:27:31.186Z,2828
2017-02-20T10:28:31.905Z,2388
2017-02-20T10:29:32.622Z,2940
2017-02-20T10:30:33.341Z,2420
2017-02-20T10:31:34.021Z,2544
2017-02-20T10:32:34.695Z,2568
2017-02-20T10:33:35.384Z,2316
2017-02-20T10:34:36.084Z,2520
2017-02-20T10:35:36.767Z,2396
2017-02-20T10:36:37.479Z,2624
2017-02-20T10:37:38.213Z,2456
2017-02-20T10:38:38.952Z,2532
2017-02-20T10:39:39.657Z,2620
2017-02-20T10:40:40.348Z,2576
2017-02-20T10:41:41.068Z,2468
2017-02-20T10:42:41.753Z,2416
2017-02-20T10:43:42.444Z,2708
2017-02-20T10:44:43.169Z,2524
2017-02-20T10:45:43.865Z,2588
2017-02-20T10:46:44.581Z,2648
2017-02-20T10:47:45.284Z,2684
2017-02-20T10:48:46.004Z,2652
2017-02-20T10:49:46.705Z,2800
2017-02-20T10:50:47.424Z,3240
2017-02-20T10:51:48.167Z,3072
2017-02-20T10:52:48.857Z,3460
2017-02-20T10:53:49.598Z,2932
2017-02-20T10:54:50.307Z,3064
2017-02-20T10:55:51.030Z,3164
2017-02-20T10:56:51.743Z,2744
2017-02-20T10:57:52.467Z,2792
2017-02-20T10:58:53.159Z,3076
2017-02-20T10:59:53.869Z,2472
2017-02-20T11:00:54.559Z,2468
2017-02-20T11:01:55.248Z,2412
2017-02-20T11:02:55.943Z,2220
2017-02-20T11:03:56.620Z,2516
2017-02-20T11:04:57.340Z,2604
2017-02-20T11:05:58.029Z,2420
2017-02-20T11:06:58.701Z,2288
2017-02-20T11:07:59.407Z,2324
2017-02-20T11:09:00.121Z,2476
2017-02-20T11:10:00.817Z,2364
2017-02-20T11:11:01.517Z,2700
2017-02-20T11:12:02.198Z,2836
2017-02-20T11:13:02.971Z,2620
2017-02-20T11:14:03.734Z,2496
2017-02-20T11:15:04.449Z,2788
2017-02-20T11:16:05.142Z,2296
2017-02-20T11:17:05.829Z,2696
2017-02-20T11:18:06.545Z,2364
2017-02-20T11:19:07.286Z,2852
2017-02-20T11:20:08.097Z,2740
2017-02-20T11:21:08.855Z,3044
2017-02-20T11:22:09.524Z,2836
2017-02-20T11:23:10.247Z,3104
2017-02-20T11:24:10.965Z,2976
2017-02-20T11:25:11.677Z,3016
2017-02-20T11:26:12.390Z,3028
2017-02-20T11:27:13.156Z,3372
2017-02-20T11:28:13.881Z,3296
2017-02-20T11:29:14.587Z,3160
2017-02-20T11:30:15.285Z,3192
2017-02-20T11:31:16.013Z,3684
2017-02-20T11:32:16.783Z,2968
2017-02-20T11:33:17.499Z,3180
2017-02-20T11:34:18.249Z,2860
2017-02-20T11:35:18.942Z,3040
2017-02-20T11:36:19.651Z,2864
2017-02-20T11:37:20.371Z,2632
2017-02-20T11:38:21.062Z,2504
2017-02-20T11:39:21.821Z,2528
2017-02-20T11:40:22.585Z,2280
2017-02-20T11:41:23.334Z,2420
2017-02-20T11:42:24.035Z,2168
2017-02-20T11:43:24.753Z,2148
2017-02-20T11:44:25.462Z,2472
2017-02-20T11:45:26.154Z,2188
2017-02-20T11:46:26.883Z,2508
2017-02-20T11:47:27.568Z,2364
2017-02-20T11:48:28.263Z,2232
2017-02-20T11:49:28.959Z,2188
2017-02-20T11:50:29.674Z,2184
2017-02-20T11:51:30.389Z,2396
2017-02-20T11:52:31.100Z,2404
2017-02-20T11:53:31.808Z,2316
2017-02-20T11:54:32.517Z,2644
2017-02-20T11:55:33.230Z,2536
2017-02-20T11:56:33.944Z,2992
2017-02-20T11:57:34.656Z,2648
2017-02-20T11:58:35.389Z,2852
2017-02-20T11:59:36.076Z,2880
2017-02-20T12:00:36.773Z,2840
2017-02-20T12:01:37.470Z,2740
2017-02-20T12:02:38.141Z,2912
2017-02-20T12:03:38.841Z,2972
2017-02-20T12:04:39.549Z,2944
2017-02-20T12:05:40.227Z,2928
2017-02-20T12:06:40.934Z,3024
2017-02-20T12:07:41.617Z,2988
2017-02-20T12:08:42.319Z,3032
2017-02-20T12:09:43.022Z,3000
2017-02-20T12:10:43.727Z,3124
2017-02-20T12:11:44.430Z,2956
2017-02-20T12:12:45.140Z,2760
2017-02-20T12:13:45.851Z,2984
2017-02-20T12:14:46.544Z,2788
2017-02-20T12:15:47.248Z,2420
2017-02-20T12:16:47.925Z,2344
2017-02-20T12:17:48.662Z,2392
2017-02-20T12:18:49.366Z,2508
2017-02-20T12:19:50.079Z,2720
2017-02-20T12:20:50.786Z,2996
2017-02-20T12:21:51.481Z,2952
2017-02-20T12:22:52.200Z,2896
2017-02-20T12:23:52.934Z,2668
2017-02-20T12:24:53.655Z,2672
2017-02-20T12:25:54.384Z,2648
2017-02-20T12:26:55.100Z,2628
2017-02-20T12:27:55.822Z,2888
2017-02-20T12:28:56.527Z,2572
2017-02-20T12:29:57.228Z,2976
2017-02-20T12:30:57.981Z,2616
2017-02-20T12:31:58.669Z,2356
2017-02-20T12:32:59.378Z,2860
2017-02-20T12:34:00.090Z,2888
2017-02-20T12:35:00.806Z,2444
2017-02-20T12:36:01.534Z,2636
2017-02-20T12:37:02.238Z,2780
2017-02-20T12:38:02.950Z,2708
2017-02-20T12:39:03.685Z,2508
2017-02-20T12:40:04.380Z,2204
2017-02-20T12:41:05.091Z,2512
2017-02-20T12:42:05.797Z,2340
2017-02-20T12:43:06.520Z,2708
2017-02-20T12:44:07.221Z,2372
2017-02-20T12:45:07.911Z,2428
2017-02-20T12:46:08.625Z,2464
2017-02-20T12:47:09.306Z,2404
2017-02-20T12:48:10.011Z,2288
2017-02-20T12:49:10.705Z,2464
2017-02-20T12:50:11.442Z,2468
2017-02-20T12:51:12.151Z,2320
2017-02-20T12:52:12.885Z,2328
2017-02-20T12:53:13.600Z,2200
2017-02-20T12:54:14.324Z,2048
2017-02-20T12:55:15.020Z,2276
2017-02-20T12:56:15.718Z,2372
2017-02-20T12:57:16.419Z,2316
2017-02-20T12:58:17.119Z,2364
2017-02-20T12:59:17.816Z,2564
2017-02-20T13:00:18.528Z,2328
2017-02-20T13:01:19.222Z,2200
2017-02-20T13:02:19.921Z,2240
2017-02-20T13:03:20.633Z,2216
2017-02-20T13:04:21.331Z,2052
2017-02-20T13:05:22.035Z,2100
2017-02-20T13:06:22.746Z,2008
2017-02-20T13:07:23.443Z,1964
2017-02-20T13:08:24.156Z,1892
2017-02-20T13:09:24.874Z,1912
2017-02-20T13:10:25.590Z,1944
2017-02-20T13:11:26.272Z,1880
2017-02-20T13:12:26.954Z,1940
2017-02-20T13:13:27.660Z,1888
2017-02-20T13:14:28.357Z,2028
2017-02-20T13:15:29.067Z,1904
2017-02-20T13:16:29.773Z,1884
2017-02-20T13:17:30.468Z,1880
2017-02-20T13:18:31.183Z,1992
2017-02-20T13:19:31.886Z,1888
2017-02-20T13:20:32.598Z,2528
2017-02-20T13:21:33.312Z,2536
2017-02-20T13:22:34.014Z,2444
2017-02-20T13:23:34.709Z,2344
2017-02-20T13:24:35.414Z,2288
2017-02-20T13:25:36.116Z,2384
2017-02-20T13:26:36.846Z,2648
2017-02-20T13:27:37.529Z,2760
2017-02-20T13:28:38.228Z,3068
2017-02-20T13:29:38.928Z,3008
2017-02-20T13:30:39.650Z,2748
2017-02-20T13:31:40.395Z,2740
2017-02-20T13:32:41.116Z,2732
2017-02-20T13:33:41.854Z,2580
2017-02-20T13:34:42.593Z,2292
2017-02-20T13:35:43.319Z,2472
2017-02-20T13:36:44.060Z,2276
2017-02-20T13:37:44.778Z,2436
2017-02-20T13:38:45.494Z,2296
2017-02-20T13:39:46.214Z,2220
2017-02-20T13:40:46.912Z,2356
2017-02-20T13:41:47.606Z,2492
2017-02-20T13:42:48.346Z,2604
2017-02-20T13:43:49.012Z,2636
2017-02-20T13:44:49.694Z,2692
2017-02-20T13:45:50.397Z,2192
2017-02-20T13:46:51.129Z,2472
2017-02-20T13:47:51.859Z,2800
2017-02-20T13:48:52.585Z,2428
2017-02-20T13:49:53.313Z,2696
2017-02-20T13:50:54.033Z,2912
2017-02-20T13:51:54.770Z,2856
2017-02-20T13:52:55.462Z,2640
2017-02-20T13:53:56.149Z,2544
2017-02-20T13:54:56.873Z,2720
2017-02-20T13:55:57.590Z,2644
2017-02-20T13:56:58.279Z,2856
2017-02-20T13:57:59.006Z,2472
2017-02-20T13:58:59.704Z,2024
2017-02-20T14:00:00.424Z,2584
2017-02-20T14:01:01.157Z,2680
2017-02-20T14:02:01.871Z,2132
2017-02-20T14:03:02.595Z,2012
2017-02-20T14:04:03.367Z,2128
2017-02-20T14:05:04.089Z,1656
2017-02-20T14:06:04.785Z,2168
2017-02-20T14:07:05.532Z,1792
2017-02-20T14:08:06.250Z,1636